createdAt,value
2022-10-30T00:01:35.488Z,98882.88
2022-10-30T00:04:01.975Z,98881.78
2022-10-30T00:06:28.353Z,98880.34
2022-10-30T00:08:54.787Z,98886.56
2022-10-30T00:11:21.319Z,98876.78
2022-10-30T00:13:47.717Z,98871.28
2022-10-30T00:16:14.076Z,98871.28
2022-10-30T00:18:42.456Z,98873.91
2022-10-30T00:21:11.940Z,98867.31
2022-10-30T00:23:38.545Z,98877.13
2022-10-30T00:26:08.485Z,98870.19
2022-10-30T00:28:35.115Z,98871.94
2022-10-30T00:31:02.628Z,98864.94
2022-10-30T00:33:29.088Z,98858.59
2022-10-30T00:35:55.587Z,98861.22
2022-10-30T00:38:22.040Z,98855.41
2022-10-30T00:40:48.647Z,98854.66
2022-10-30T00:43:34.993Z,98841.91
2022-10-30T00:46:18.785Z,98839.75
2022-10-30T00:49:10.694Z,98849.94
2022-10-30T00:51:41.593Z,98841.19
2022-10-30T00:54:09.116Z,98836.09
2022-10-30T00:56:35.627Z,98830.25
2022-10-30T00:59:06.716Z,98836.00
2022-10-30T01:01:37.933Z,98837.16
2022-10-30T01:04:06.390Z,98829.09
2022-10-30T01:06:35.473Z,98820.69
2022-10-30T01:09:03.202Z,98823.56
2022-10-30T01:11:29.807Z,98823.56
2022-10-30T01:13:59.941Z,98821.38
2022-10-30T01:16:47.569Z,98823.50
2022-10-30T01:19:44.523Z,98819.47
2022-10-30T01:22:29.686Z,98819.38
2022-10-30T01:25:02.159Z,98819.78
2022-10-30T01:27:53.379Z,98817.13
2022-10-30T01:30:22.672Z,98812.72
2022-10-30T01:33:01.704Z,98820.38
2022-10-30T01:35:40.483Z,98822.59
2022-10-30T01:38:12.488Z,98820.38
2022-10-30T01:40:38.844Z,98821.00
2022-10-30T01:43:05.265Z,98820.25
2022-10-30T01:45:50.237Z,98815.75
2022-10-30T01:48:31.769Z,98818.59
2022-10-30T01:51:19.561Z,98811.66
2022-10-30T01:53:45.907Z,98809.41
2022-10-30T01:56:40.268Z,98809.00
2022-10-30T01:59:52.145Z,98803.41
2022-10-30T02:02:18.943Z,98796.19
2022-10-30T02:04:45.791Z,98799.06
2022-10-30T02:07:12.641Z,98791.63
2022-10-30T02:09:39.743Z,98780.50
2022-10-30T02:12:07.116Z,98786.53
2022-10-30T02:14:38.744Z,98778.09
2022-10-30T02:17:07.262Z,98783.72
2022-10-30T02:19:34.256Z,98784.78
2022-10-30T02:22:01.110Z,98784.78
2022-10-30T02:24:28.879Z,98786.94
2022-10-30T02:26:55.324Z,98794.44
2022-10-30T02:29:21.907Z,98790.34
2022-10-30T02:31:49.080Z,98796.72
2022-10-30T02:34:15.535Z,98786.25
2022-10-30T02:36:42.057Z,98787.28
2022-10-30T02:39:08.671Z,98794.28
2022-10-30T02:41:35.061Z,98795.66
2022-10-30T02:44:01.866Z,98789.44
2022-10-30T02:46:28.233Z,98790.81
2022-10-30T02:48:54.629Z,98793.25
2022-10-30T02:51:21.124Z,98787.13
2022-10-30T02:53:47.536Z,98787.84
2022-10-30T02:56:14.658Z,98791.13
2022-10-30T02:58:42.219Z,98786.03
2022-10-30T03:01:11.077Z,98785.31
2022-10-30T03:03:37.895Z,98787.13
2022-10-30T03:06:06.765Z,98789.22
2022-10-30T03:08:33.514Z,98784.88
2022-10-30T03:11:05.722Z,98792.81
2022-10-30T03:13:34.267Z,98793.16
2022-10-30T03:16:02.258Z,98798.66
2022-10-30T03:18:28.961Z,98797.59
2022-10-30T03:21:00.691Z,98807.47
2022-10-30T03:23:27.979Z,98801.31
2022-10-30T03:25:58.600Z,98803.84
2022-10-30T03:28:27.495Z,98793.03
2022-10-30T03:31:01.893Z,98787.94
2022-10-30T03:33:28.704Z,98795.25
2022-10-30T03:35:55.806Z,98790.50
2022-10-30T03:38:22.207Z,98793.34
2022-10-30T03:40:48.643Z,98791.56
2022-10-30T03:43:15.091Z,98791.56
2022-10-30T03:45:46.530Z,98791.25
2022-10-30T03:48:12.984Z,98795.25
2022-10-30T03:50:39.364Z,98788.78
2022-10-30T03:53:05.767Z,98793.53
2022-10-30T03:55:32.276Z,98778.78
2022-10-30T03:57:58.999Z,98787.25
2022-10-30T04:00:25.765Z,98779.59
2022-10-30T04:02:52.490Z,98779.28
2022-10-30T04:05:22.192Z,98776.00
2022-10-30T04:07:48.920Z,98773.47
2022-10-30T04:10:20.875Z,98773.88
2022-10-30T04:12:50.465Z,98768.53
2022-10-30T04:15:16.852Z,98759.09
2022-10-30T04:17:51.226Z,98755.72
2022-10-30T04:20:22.641Z,98759.03
2022-10-30T04:22:49.419Z,98756.47
2022-10-30T04:25:15.833Z,98754.97
2022-10-30T04:27:43.487Z,98756.13
2022-10-30T04:30:11.893Z,98751.03
2022-10-30T04:32:52.465Z,98745.63
2022-10-30T04:35:21.042Z,98738.31
2022-10-30T04:37:54.445Z,98730.03
2022-10-30T04:40:22.224Z,98744.25
2022-10-30T04:42:48.698Z,98743.81
2022-10-30T04:45:15.582Z,98745.31
2022-10-30T04:47:42.089Z,98743.50
2022-10-30T04:50:09.229Z,98747.84
2022-10-30T04:52:35.636Z,98740.84
2022-10-30T04:55:02.495Z,98743.41
2022-10-30T04:57:31.261Z,98746.69
2022-10-30T05:00:00.791Z,98745.63
2022-10-30T05:02:27.280Z,98745.31
2022-10-30T05:04:53.817Z,98736.66
2022-10-30T05:07:20.676Z,98737.59
2022-10-30T05:09:47.040Z,98732.81
2022-10-30T05:12:13.499Z,98730.63
2022-10-30T05:14:39.917Z,98731.75
2022-10-30T05:17:06.340Z,98742.25
2022-10-30T05:19:32.691Z,98743.00
2022-10-30T05:21:59.089Z,98743.75
2022-10-30T05:24:25.449Z,98742.25
2022-10-30T05:26:51.838Z,98740.38
2022-10-30T05:29:18.236Z,98747.25
2022-10-30T05:31:44.605Z,98744.25
2022-10-30T05:34:11.027Z,98744.41
2022-10-30T05:36:37.566Z,98758.28
2022-10-30T05:39:04.484Z,98754.47
2022-10-30T05:41:30.879Z,98756.22
2022-10-30T05:43:57.320Z,98757.66
2022-10-30T05:46:23.728Z,98754.06
2022-10-30T05:48:50.121Z,98758.00
2022-10-30T05:51:16.511Z,98757.44
2022-10-30T05:53:42.944Z,98754.59
2022-10-30T05:56:09.371Z,98750.56
2022-10-30T05:58:35.766Z,98746.94
2022-10-30T06:01:07.019Z,98747.25
2022-10-30T06:03:33.408Z,98751.19
2022-10-30T06:05:59.803Z,98746.09
2022-10-30T06:08:26.205Z,98755.56
2022-10-30T06:10:54.812Z,98748.22
2022-10-30T06:13:21.529Z,98750.47
2022-10-30T06:15:47.933Z,98745.47
2022-10-30T06:18:14.883Z,98735.38
2022-10-30T06:20:41.814Z,98746.28
2022-10-30T06:23:10.103Z,98744.06
2022-10-30T06:25:41.051Z,98751.38
2022-10-30T06:28:10.177Z,98754.31
2022-10-30T06:30:36.659Z,98755.94
2022-10-30T06:33:05.283Z,98755.25
2022-10-30T06:35:32.220Z,98757.91
2022-10-30T06:38:00.291Z,98760.53
2022-10-30T06:40:27.777Z,98761.44
2022-10-30T06:42:54.755Z,98767.78
2022-10-30T06:45:23.274Z,98773.78
2022-10-30T06:47:50.136Z,98770.66
2022-10-30T06:50:19.178Z,98769.00
2022-10-30T06:52:45.775Z,98770.66
2022-10-30T06:55:12.367Z,98773.44
2022-10-30T06:57:38.823Z,98780.91
2022-10-30T07:00:06.792Z,98779.66
2022-10-30T07:02:34.104Z,98779.91
2022-10-30T07:05:00.579Z,98786.38
2022-10-30T07:07:27.027Z,98786.84
2022-10-30T07:09:53.431Z,98780.91
2022-10-30T07:12:19.920Z,98792.50
2022-10-30T07:14:46.293Z,98781.91
2022-10-30T07:17:12.663Z,98790.22
2022-10-30T07:19:39.045Z,98783.22
2022-10-30T07:22:05.439Z,98783.31
2022-10-30T07:24:31.873Z,98779.34
2022-10-30T07:26:58.267Z,98783.34
2022-10-30T07:29:24.763Z,98783.09
2022-10-30T07:32:02.344Z,98787.47
2022-10-30T07:34:29.332Z,98776.31
2022-10-30T07:36:55.769Z,98781.69
2022-10-30T07:39:22.153Z,98784.41
2022-10-30T07:41:50.524Z,98784.06
2022-10-30T07:44:17.306Z,98781.09
2022-10-30T07:46:43.744Z,98795.72
2022-10-30T07:49:10.160Z,98776.16
2022-10-30T07:51:36.539Z,98778.47
2022-10-30T07:54:03.089Z,98790.22
2022-10-30T07:56:29.515Z,98789.84
2022-10-30T07:58:58.080Z,98795.44
2022-10-30T08:01:24.566Z,98786.66
2022-10-30T08:03:51.014Z,98791.72
2022-10-30T08:06:20.080Z,98774.63
2022-10-30T08:08:49.467Z,98769.03
2022-10-30T08:11:15.879Z,98772.09
2022-10-30T08:13:42.239Z,98769.19
2022-10-30T08:16:08.709Z,98769.06
2022-10-30T08:18:35.406Z,98776.91
2022-10-30T08:21:01.890Z,98780.06
2022-10-30T08:23:28.265Z,98767.28
2022-10-30T08:25:57.349Z,98765.56
2022-10-30T08:28:26.943Z,98768.31
2022-10-30T08:30:58.566Z,98772.84
2022-10-30T08:33:25.305Z,98760.44
2022-10-30T08:35:54.030Z,98763.53
2022-10-30T08:38:20.453Z,98766.22
2022-10-30T08:40:46.883Z,98766.81
2022-10-30T08:43:13.597Z,98767.31
2022-10-30T08:45:42.002Z,98764.72
2022-10-30T08:48:11.687Z,98753.31
2022-10-30T08:50:38.060Z,98755.25
2022-10-30T08:53:07.057Z,98765.34
2022-10-30T08:55:34.985Z,98753.25
2022-10-30T08:58:01.799Z,98741.09
2022-10-30T09:00:28.459Z,98748.00
2022-10-30T09:02:54.955Z,98746.41
2022-10-30T09:05:21.458Z,98750.88
2022-10-30T09:07:48.215Z,98748.75
2022-10-30T09:10:15.381Z,98749.34
2022-10-30T09:12:41.927Z,98745.50
2022-10-30T09:15:08.700Z,98748.03
2022-10-30T09:17:35.100Z,98738.09
2022-10-30T09:20:01.586Z,98747.53
2022-10-30T09:22:28.015Z,98737.84
2022-10-30T09:24:54.417Z,98751.84
2022-10-30T09:27:20.819Z,98745.00
2022-10-30T09:29:47.192Z,98745.41
2022-10-30T09:32:13.571Z,98741.13
2022-10-30T09:34:40.997Z,98746.47
2022-10-30T09:37:08.343Z,98749.50
2022-10-30T09:39:34.697Z,98752.81
2022-10-30T09:42:36.600Z,98757.72
2022-10-30T09:45:28.011Z,98764.81
2022-10-30T09:48:30.425Z,98766.34
2022-10-30T09:51:05.694Z,98764.16
2022-10-30T09:53:45.881Z,98759.13
2022-10-30T09:56:14.819Z,98763.84
2022-10-30T09:58:53.327Z,98757.84
2022-10-30T10:01:30.432Z,98759.69
2022-10-30T10:04:08.467Z,98765.53
2022-10-30T10:06:41.408Z,98762.38
2022-10-30T10:09:17.294Z,98761.09
2022-10-30T10:11:49.252Z,98752.81
2022-10-30T10:14:21.845Z,98759.31
2022-10-30T10:16:56.962Z,98765.78
2022-10-30T10:19:39.192Z,98758.59
2022-10-30T10:22:30.579Z,98756.66
2022-10-30T10:24:57.110Z,98754.00
2022-10-30T10:27:43.740Z,98762.34
2022-10-30T10:30:13.874Z,98758.97
2022-10-30T10:33:18.920Z,98759.19
2022-10-30T10:35:58.949Z,98750.00
2022-10-30T10:38:37.150Z,98753.13
2022-10-30T10:41:08.712Z,98748.59
2022-10-30T10:43:42.078Z,98744.97
2022-10-30T10:46:27.487Z,98739.81
2022-10-30T10:49:16.090Z,98742.81
2022-10-30T10:51:45.642Z,98741.59
2022-10-30T10:54:38.962Z,98733.16
2022-10-30T10:57:07.105Z,98732.50
2022-10-30T10:59:38.414Z,98746.41
2022-10-30T11:02:26.542Z,98749.91
2022-10-30T11:04:55.318Z,98750.09
2022-10-30T11:07:30.107Z,98744.63
2022-10-30T11:09:57.944Z,98750.38
2022-10-30T11:12:33.650Z,98740.53
2022-10-30T11:15:22.850Z,98742.94
2022-10-30T11:17:58.648Z,98741.31
2022-10-30T11:20:34.804Z,98746.34
2022-10-30T11:23:01.939Z,98742.66
2022-10-30T11:25:34.539Z,98735.94
2022-10-30T11:28:04.498Z,98730.75
2022-10-30T11:30:31.453Z,98727.34
2022-10-30T11:32:58.881Z,98730.16
2022-10-30T11:35:25.502Z,98728.63
2022-10-30T11:38:12.649Z,98729.81
2022-10-30T11:40:41.114Z,98721.94
2022-10-30T11:43:11.077Z,98725.88
2022-10-30T11:45:43.309Z,98716.50
2022-10-30T11:48:27.210Z,98720.81
2022-10-30T11:50:59.024Z,98716.97
2022-10-30T11:53:34.873Z,98723.16
2022-10-30T11:56:04.171Z,98718.50
2022-10-30T11:58:43.034Z,98723.97
2022-10-30T12:01:19.684Z,98714.88
2022-10-30T12:03:46.275Z,98720.56
2022-10-30T12:06:25.157Z,98712.59
2022-10-30T12:09:09.553Z,98717.38
2022-10-30T12:11:37.510Z,98713.41
2022-10-30T12:14:04.904Z,98717.19
2022-10-30T12:16:32.872Z,98710.59
2022-10-30T12:19:02.468Z,98719.28
2022-10-30T12:21:34.979Z,98713.94
2022-10-30T12:24:06.808Z,98710.19
2022-10-30T12:26:35.294Z,98706.94
2022-10-30T12:29:06.500Z,98714.25
2022-10-30T12:31:38.637Z,98702.75
2022-10-30T12:34:24.791Z,98706.09
2022-10-30T12:37:03.683Z,98710.88
2022-10-30T12:39:46.400Z,98702.97
2022-10-30T12:42:17.682Z,98693.63
2022-10-30T12:44:49.867Z,98698.47
2022-10-30T12:47:33.385Z,98698.25
2022-10-30T12:50:27.696Z,98702.31
2022-10-30T12:52:57.755Z,98690.34
2022-10-30T12:55:29.980Z,98687.47
2022-10-30T12:58:14.502Z,98692.09
2022-10-30T13:00:50.345Z,98689.50
2022-10-30T13:03:35.601Z,98690.03
2022-10-30T13:06:16.460Z,98675.97
2022-10-30T13:08:50.970Z,98686.72
2022-10-30T13:11:43.153Z,98678.84
2022-10-30T13:14:34.329Z,98678.78
2022-10-30T13:17:00.755Z,98680.94
2022-10-30T13:19:28.159Z,98680.25
2022-10-30T13:22:07.147Z,98686.28
2022-10-30T13:25:03.892Z,98674.66
2022-10-30T13:28:11.844Z,98673.44
2022-10-30T13:30:44.343Z,98675.19
2022-10-30T13:33:42.811Z,98676.31
2022-10-30T13:36:18.550Z,98683.81
2022-10-30T13:39:24.162Z,98673.94
2022-10-30T13:42:09.235Z,98674.91
2022-10-30T13:44:41.891Z,98683.69
2022-10-30T13:47:23.864Z,98674.63
2022-10-30T13:49:59.390Z,98677.50
2022-10-30T13:52:31.337Z,98678.38
2022-10-30T13:55:24.292Z,98678.16
2022-10-30T13:58:12.524Z,98673.41
2022-10-30T14:01:10.905Z,98674.91
2022-10-30T14:03:56.688Z,98674.56
2022-10-30T14:06:45.807Z,98673.13
2022-10-30T14:09:24.302Z,98677.38
2022-10-30T14:11:53.505Z,98669.41
2022-10-30T14:14:30.745Z,98673.13
2022-10-30T14:17:26.492Z,98675.09
2022-10-30T14:20:10.407Z,98674.47
2022-10-30T14:22:40.563Z,98677.19
2022-10-30T14:25:16.481Z,98673.13
2022-10-30T14:27:43.104Z,98674.44
2022-10-30T14:30:19.869Z,98677.91
2022-10-30T14:32:55.815Z,98672.06
2022-10-30T14:35:39.519Z,98688.00
2022-10-30T14:38:08.609Z,98685.53
2022-10-30T14:40:41.682Z,98681.97
2022-10-30T14:44:04.241Z,98690.59
2022-10-30T14:46:48.545Z,98698.06
2022-10-30T14:49:36.547Z,98691.19
2022-10-30T14:53:00.251Z,98696.53
2022-10-30T14:55:40.596Z,98688.53
2022-10-30T14:58:06.921Z,98696.72
2022-10-30T15:00:33.367Z,98697.53
2022-10-30T15:03:11.642Z,98693.91
2022-10-30T15:06:01.401Z,98700.25
2022-10-30T15:08:56.561Z,98701.84
2022-10-30T15:11:42.273Z,98696.00
2022-10-30T15:14:39.942Z,98689.47
2022-10-30T15:17:19.649Z,98695.44
2022-10-30T15:19:46.790Z,98694.06
2022-10-30T15:22:19.191Z,98703.72
2022-10-30T15:24:46.252Z,98708.53
2022-10-30T15:27:19.016Z,98707.91
2022-10-30T15:29:51.631Z,98708.72
2022-10-30T15:32:20.638Z,98707.31
2022-10-30T15:35:03.068Z,98704.09
2022-10-30T15:37:30.182Z,98702.28
2022-10-30T15:40:33.898Z,98701.66
2022-10-30T15:43:02.703Z,98706.84
2022-10-30T15:45:38.351Z,98710.94
2022-10-30T15:48:31.257Z,98705.81
2022-10-30T15:51:05.144Z,98707.69
2022-10-30T15:53:48.100Z,98712.47
2022-10-30T15:56:20.145Z,98712.88
2022-10-30T15:59:23.993Z,98712.53
2022-10-30T16:01:56.773Z,98707.75
2022-10-30T16:04:35.717Z,98710.34
2022-10-30T16:07:16.173Z,98714.38
2022-10-30T16:09:54.882Z,98720.97
2022-10-30T16:12:25.861Z,98718.41
2022-10-30T16:14:55.848Z,98713.63
2022-10-30T16:17:24.216Z,98706.28
2022-10-30T16:19:54.442Z,98706.59
2022-10-30T16:22:28.163Z,98710.97
2022-10-30T16:24:58.810Z,98713.16
2022-10-30T16:27:25.943Z,98703.25
2022-10-30T16:29:57.287Z,98714.94
2022-10-30T16:32:30.659Z,98708.69
2022-10-30T16:34:58.800Z,98713.75
2022-10-30T16:37:37.261Z,98714.09
2022-10-30T16:40:11.141Z,98712.97
2022-10-30T16:42:38.276Z,98716.63
2022-10-30T16:45:34.586Z,98720.22
2022-10-30T16:48:19.508Z,98718.75
2022-10-30T16:50:47.281Z,98715.06
2022-10-30T16:53:20.240Z,98720.16
2022-10-30T16:55:47.080Z,98722.66
2022-10-30T16:58:15.012Z,98717.78
2022-10-30T17:00:48.870Z,98722.19
2022-10-30T17:03:15.649Z,98720.94
2022-10-30T17:05:43.745Z,98731.56
2022-10-30T17:08:13.730Z,98723.47
2022-10-30T17:11:02.211Z,98726.31
2022-10-30T17:13:35.757Z,98729.63
2022-10-30T17:16:37.318Z,98724.03
2022-10-30T17:19:45.129Z,98726.59
2022-10-30T17:22:16.389Z,98728.34
2022-10-30T17:24:43.075Z,98723.53
2022-10-30T17:27:28.915Z,98727.84
2022-10-30T17:29:55.520Z,98725.25
2022-10-30T17:32:41.188Z,98730.00
2022-10-30T17:35:16.658Z,98729.88
2022-10-30T17:37:43.305Z,98727.53
2022-10-30T17:40:11.552Z,98729.72
2022-10-30T17:42:38.065Z,98735.91
2022-10-30T17:45:12.294Z,98732.16
2022-10-30T17:47:38.810Z,98741.25
2022-10-30T17:50:05.985Z,98733.91
2022-10-30T17:52:34.006Z,98736.78
2022-10-30T17:55:19.914Z,98731.22
2022-10-30T17:57:46.426Z,98739.13
2022-10-30T18:00:13.721Z,98733.69
2022-10-30T18:02:41.946Z,98736.84
2022-10-30T18:05:15.814Z,98734.66
2022-10-30T18:07:42.380Z,98737.22
2022-10-30T18:10:09.726Z,98738.94
2022-10-30T18:12:36.199Z,98727.91
2022-10-30T18:15:24.560Z,98736.22
2022-10-30T18:17:51.058Z,98731.78
2022-10-30T18:20:17.613Z,98737.00
2022-10-30T18:22:44.227Z,98739.25
2022-10-30T18:25:24.654Z,98739.69
2022-10-30T18:27:51.407Z,98733.44
2022-10-30T18:30:18.686Z,98733.28
2022-10-30T18:32:46.110Z,98732.16
2022-10-30T18:35:27.096Z,98738.97
2022-10-30T18:37:53.602Z,98738.56
2022-10-30T18:40:22.520Z,98737.44
2022-10-30T18:42:49.465Z,98734.31
2022-10-30T18:45:23.581Z,98735.91
2022-10-30T18:47:51.185Z,98736.97
2022-10-30T18:50:19.768Z,98735.03
2022-10-30T18:52:46.622Z,98732.16
2022-10-30T18:55:23.467Z,98736.38
2022-10-30T18:57:51.166Z,98733.31
2022-10-30T19:00:23.563Z,98728.59
2022-10-30T19:02:50.158Z,98730.38
2022-10-30T19:05:24.966Z,98735.38
2022-10-30T19:07:51.600Z,98734.97
2022-10-30T19:10:18.474Z,98729.81
2022-10-30T19:13:04.232Z,98738.13
2022-10-30T19:15:37.121Z,98735.09
2022-10-30T19:18:05.369Z,98732.88
2022-10-30T19:20:58.509Z,98728.13
2022-10-30T19:23:22.685Z,98731.88
2022-10-30T19:25:49.598Z,98729.19
2022-10-30T19:28:17.757Z,98733.44
2022-10-30T19:30:50.127Z,98731.47
2022-10-30T19:33:21.419Z,98736.84
2022-10-30T19:36:01.019Z,98734.31
2022-10-30T19:38:28.339Z,98742.63
2022-10-30T19:40:54.948Z,98741.09
2022-10-30T19:43:21.499Z,98743.63
2022-10-30T19:45:51.281Z,98745.13
2022-10-30T19:48:40.492Z,98750.22
2022-10-30T19:51:09.317Z,98742.81
2022-10-30T19:53:35.836Z,98746.72
2022-10-30T19:56:02.371Z,98751.53
2022-10-30T19:58:29.055Z,98749.66
2022-10-30T20:00:55.686Z,98747.38
2022-10-30T20:03:22.375Z,98753.50
2022-10-30T20:05:50.532Z,98750.38
2022-10-30T20:08:24.971Z,98755.06
2022-10-30T20:10:57.256Z,98751.72
2022-10-30T20:13:25.800Z,98754.59
2022-10-30T20:15:53.899Z,98758.94
2022-10-30T20:18:23.558Z,98760.03
2022-10-30T20:20:52.759Z,98757.78
2022-10-30T20:23:22.941Z,98762.56
2022-10-30T20:25:52.512Z,98763.94
2022-10-30T20:28:35.281Z,98757.56
2022-10-30T20:31:02.311Z,98771.72
2022-10-30T20:33:28.963Z,98762.28
2022-10-30T20:35:56.383Z,98765.38
2022-10-30T20:38:29.339Z,98764.72
2022-10-30T20:40:56.914Z,98771.81
2022-10-30T20:43:33.977Z,98761.84
2022-10-30T20:46:00.701Z,98758.56
2022-10-30T20:48:27.979Z,98765.38
2022-10-30T20:50:59.412Z,98774.84
2022-10-30T20:53:26.522Z,98763.16
2022-10-30T20:55:53.142Z,98768.09
2022-10-30T20:58:20.268Z,98774.38
2022-10-30T21:00:47.429Z,98771.38
2022-10-30T21:03:17.049Z,98767.78
2022-10-30T21:05:46.028Z,98773.66
2022-10-30T21:08:28.945Z,98773.63
2022-10-30T21:11:04.761Z,98773.94
2022-10-30T21:13:40.497Z,98773.78
2022-10-30T21:16:10.791Z,98774.56
2022-10-30T21:18:37.830Z,98773.59
2022-10-30T21:21:12.432Z,98776.53
2022-10-30T21:23:39.601Z,98779.75
2022-10-30T21:26:10.762Z,98775.06
2022-10-30T21:28:40.825Z,98780.53
2022-10-30T21:31:13.007Z,98785.31
2022-10-30T21:33:40.211Z,98785.88
2022-10-30T21:36:17.908Z,98781.41
2022-10-30T21:38:49.970Z,98777.91
2022-10-30T21:41:20.071Z,98784.28
2022-10-30T21:43:52.279Z,98774.53
2022-10-30T21:46:19.311Z,98779.44
2022-10-30T21:48:46.372Z,98772.44
2022-10-30T21:51:21.742Z,98788.69
2022-10-30T21:53:49.746Z,98788.69
2022-10-30T21:56:24.043Z,98784.84
2022-10-30T21:58:51.586Z,98789.66
2022-10-30T22:01:25.898Z,98786.38
2022-10-30T22:03:53.775Z,98782.03
2022-10-30T22:06:22.829Z,98792.75
2022-10-30T22:08:51.802Z,98788.38
2022-10-30T22:11:20.030Z,98786.72
2022-10-30T22:13:54.965Z,98783.34
2022-10-30T22:16:22.282Z,98782.09
2022-10-30T22:18:49.796Z,98783.78
2022-10-30T22:21:16.641Z,98783.59
2022-10-30T22:23:43.687Z,98793.31
2022-10-30T22:26:19.251Z,98783.28
2022-10-30T22:28:46.348Z,98783.91
2022-10-30T22:31:18.391Z,98789.09
2022-10-30T22:33:45.704Z,98790.47
2022-10-30T22:36:26.475Z,98786.34
2022-10-30T22:39:02.390Z,98800.31
2022-10-30T22:41:32.891Z,98786.34
2022-10-30T22:44:07.806Z,98790.28
2022-10-30T22:46:38.373Z,98787.31
2022-10-30T22:49:05.444Z,98792.06
2022-10-30T22:51:33.866Z,98792.50
2022-10-30T22:54:02.436Z,98796.31
2022-10-30T22:56:35.247Z,98800.97
2022-10-30T22:59:08.852Z,98808.94
2022-10-30T23:01:40.013Z,98812.34
2022-10-30T23:04:10.051Z,98815.38
2022-10-30T23:06:36.996Z,98815.09
2022-10-30T23:09:08.811Z,98817.53
2022-10-30T23:11:36.087Z,98824.06
2022-10-30T23:14:02.865Z,98820.06
2022-10-30T23:16:29.667Z,98825.16
2022-10-30T23:18:57.954Z,98823.13
2022-10-30T23:21:26.945Z,98822.81
2022-10-30T23:23:54.136Z,98815.59
2022-10-30T23:26:24.203Z,98818.78
2022-10-30T23:28:53.478Z,98825.22
2022-10-30T23:31:29.182Z,98820.03
2022-10-30T23:34:01.300Z,98826.06
2022-10-30T23:36:28.111Z,98821.53
2022-10-30T23:38:56.921Z,98822.25
2022-10-30T23:41:28.890Z,98822.16
2022-10-30T23:43:59.914Z,98822.88
2022-10-30T23:46:27.337Z,98820.13
2022-10-30T23:48:54.822Z,98821.91
2022-10-30T23:51:21.876Z,98826.38
2022-10-30T23:53:48.673Z,98824.66
2022-10-30T23:56:18.817Z,98822.66
2022-10-30T23:58:47.297Z,98827.19
